Stations météo

réclame
Mon MeteoGroup
Langdon Bay, Grande-Bretagne (3796): Température de l'air & dewpoint: 11.09.2019 20:00:00 - 17.09.2019 20:00:00 (BST)Langdon Bay, Grande-Bretagne (3796): Vitesse du vent & gusts: 11.09.2019 20:00:00 - 17.09.2019 20:00:00 (BST)Langdon Bay, Grande-Bretagne (3796): Direction du vent: 11.09.2019 20:00:00 - 17.09.2019 20:00:00 (BST)Langdon Bay, Grande-Bretagne (3796): reduced air pressure: 11.09.2019 20:00:00 - 17.09.2019 20:00:00 (BST)
Date & Time tt [°C] td [°C] ff [km/h] ff [knt] fx [km/h] fx [knt] dd ppp [hPa]
17.09.2019 20:00:00 12,7 7,6 24 13 - - NE 1026,3
17.09.2019 19:00:00 13,9 9,1 26 14 - - NE 1025,6
17.09.2019 18:00:00 15,0 8,2 24 13 - - NE 1025,5
17.09.2019 17:00:00 16,0 8,3 24 13 - - NE 1025,2
17.09.2019 16:00:00 17,3 8,5 28 15 - - NE 1024,8
17.09.2019 15:00:00 18,2 7,3 26 14 - - NNE 1024,7
17.09.2019 14:00:00 19,2 7,9 24 13 - - N 1024,5
17.09.2019 13:00:00 18,9 8,5 22 12 - - N 1024,4
17.09.2019 12:00:00 18,0 9,0 18 10 - - NNW 1024,3
17.09.2019 11:00:00 16,9 9,8 21 11 - - NNW 1024,4
17.09.2019 10:00:00 15,7 11,7 21 11 - - NNW 1024,0
17.09.2019 09:00:00 14,0 11,5 21 11 - - NNW 1023,9
17.09.2019 08:00:00 12,4 11,7 18 10 - - NNW 1023,5
17.09.2019 07:00:00 12,4 11,1 16 9 - - NNW 1022,9
17.09.2019 06:00:00 13,1 12,1 15 8 - - NW 1022,7
17.09.2019 05:00:00 12,5 11,9 9 5 - - NW 1022,7
17.09.2019 04:00:00 12,9 12,3 11 6 - - NNW 1022,8
17.09.2019 03:00:00 13,7 13,2 11 6 - - N 1022,5
17.09.2019 02:00:00 13,9 13,5 9 5 - - NNW 1022,8
17.09.2019 01:00:00 14,3 13,7 11 6 - - N 1022,7
17.09.2019 00:00:00 14,3 13,8 11 6 - - N 1022,9
16.09.2019 23:00:00 14,6 14,1 8 4 - - N 1022,9
16.09.2019 22:00:00 14,7 14,2 9 5 - - NNE 1022,8
16.09.2019 21:00:00 15,0 14,6 9 5 - - NNE 1022,5
16.09.2019 20:00:00 15,4 14,7 16 9 - - NNE 1022,1
16.09.2019 19:00:00 15,9 14,8 16 9 - - NNE 1021,8
16.09.2019 18:00:00 16,7 15,5 16 9 - - NNW 1021,4
16.09.2019 17:00:00 17,8 14,5 13 7 - - NNW 1021,3
16.09.2019 16:00:00 18,8 14,3 15 8 - - N 1021,3
16.09.2019 15:00:00 19,8 15,1 11 6 - - NNW 1021,2
16.09.2019 14:00:00 19,6 15,0 11 6 - - NW 1021,3
16.09.2019 13:00:00 18,7 14,9 11 6 - - NW 1021,4
16.09.2019 12:00:00 19,4 15,4 9 5 - - NNW 1021,3
16.09.2019 11:00:00 18,7 15,2 13 7 - - NW 1021,1
16.09.2019 10:00:00 18,0 15,1 11 6 - - WNW 1021,4
16.09.2019 09:00:00 17,2 14,9 13 7 - - NW 1021,2
16.09.2019 08:00:00 16,5 14,9 16 9 - - NW 1020,8
16.09.2019 07:00:00 15,8 13,9 16 9 - - NNW 1020,4
16.09.2019 06:00:00 16,0 13,7 16 9 - - NNW 1020,5
16.09.2019 05:00:00 16,6 13,7 15 8 - - NW 1020,5
16.09.2019 04:00:00 16,8 13,7 18 10 - - NW 1020,6
16.09.2019 03:00:00 17,2 13,6 22 12 - - NNW 1021,0
16.09.2019 02:00:00 17,4 13,6 21 11 - - NW 1021,5
16.09.2019 01:00:00 16,2 13,3 13 7 - - W 1021,6
16.09.2019 00:00:00 15,9 13,1 11 6 - - WSW 1022,1
15.09.2019 23:00:00 16,8 13,2 15 8 - - WSW 1022,3
15.09.2019 22:00:00 16,6 14,8 13 7 - - WSW 1022,6
15.09.2019 21:00:00 16,5 14,8 9 5 - - WSW 1022,8
15.09.2019 20:00:00 16,5 14,2 11 6 - - SW 1022,9
15.09.2019 19:00:00 16,7 13,9 13 7 - - WSW 1022,8
15.09.2019 18:00:00 18,2 14,4 9 5 - - SW 1022,9
15.09.2019 17:00:00 18,6 14,5 13 7 - - SW 1023,1
15.09.2019 16:00:00 19,2 14,5 15 8 - - SW 1023,3
15.09.2019 15:00:00 19,4 14,6 15 8 - - SW 1023,7
15.09.2019 14:00:00 19,7 13,6 11 6 - - SSW 1024,3
15.09.2019 13:00:00 19,9 14,0 18 10 - - SW 1024,4
15.09.2019 12:00:00 19,0 13,1 13 7 - - WSW 1025,0
15.09.2019 11:00:00 18,5 13,5 9 5 - - SW 1025,0
15.09.2019 10:00:00 18,6 12,1 8 4 - - WSW 1025,1
15.09.2019 09:00:00 17,5 10,3 21 11 - - NW 1025,0
15.09.2019 08:00:00 15,7 9,2 24 13 - - WNW 1024,8
15.09.2019 07:00:00 14,0 8,4 21 11 - - WNW 1024,9
15.09.2019 06:00:00 13,6 9,3 16 9 - - WNW 1025,2
15.09.2019 05:00:00 13,2 10,0 16 9 - - WNW 1025,4
15.09.2019 04:00:00 13,1 10,8 15 8 - - W 1025,9
15.09.2019 03:00:00 11,2 11,0 5 3 - - WSW 1026,3
15.09.2019 02:00:00 11,5 11,2 2 1 - - WSW 1027,0
15.09.2019 01:00:00 12,5 12,2 4 2 - - S 1027,4
15.09.2019 00:00:00 13,5 13,3 4 2 - - ESE 1027,6
14.09.2019 23:00:00 13,9 13,5 4 2 - - SE 1028,2
14.09.2019 22:00:00 14,3 13,9 5 3 - - SE 1028,5
14.09.2019 21:00:00 14,1 13,4 5 3 - - E 1029,1
14.09.2019 20:00:00 13,9 12,8 8 4 - - E 1029,4
14.09.2019 19:00:00 15,1 12,6 8 4 - - ENE 1029,0
14.09.2019 18:00:00 16,7 12,9 9 5 - - ENE 1029,5
14.09.2019 17:00:00 18,2 12,7 15 8 - - E 1029,7
14.09.2019 16:00:00 19,1 11,5 18 10 - - ENE 1030,2
14.09.2019 15:00:00 19,6 11,5 18 10 - - ENE 1031,0
14.09.2019 14:00:00 20,2 12,9 15 8 - - ENE 1031,8
14.09.2019 13:00:00 19,9 11,9 13 7 - - ENE 1032,4
14.09.2019 12:00:00 19,5 12,4 13 7 - - E 1032,8
14.09.2019 11:00:00 19,1 13,1 16 9 - - E 1033,1
14.09.2019 10:00:00 18,4 13,1 15 8 - - E 1033,6
14.09.2019 09:00:00 17,2 13,1 13 7 - - E 1033,9
14.09.2019 08:00:00 12,5 11,2 13 7 - - NNE 1034,2
14.09.2019 07:00:00 12,1 10,6 15 8 - - NE 1034,0
14.09.2019 06:00:00 12,2 10,1 16 9 - - NE 1034,1
14.09.2019 05:00:00 13,0 10,9 21 11 - - ENE 1034,4
14.09.2019 04:00:00 12,5 10,6 18 10 - - NE 1034,9
14.09.2019 03:00:00 12,9 10,4 21 11 - - NE 1034,9
14.09.2019 02:00:00 13,1 10,7 22 12 - - NE 1035,1
14.09.2019 01:00:00 12,9 10,6 18 10 - - NE 1035,5
14.09.2019 00:00:00 12,7 10,5 22 12 - - NE 1035,8
13.09.2019 23:00:00 12,8 10,3 22 12 - - NE 1035,7
13.09.2019 22:00:00 13,2 10,6 21 11 - - NE 1036,0
13.09.2019 21:00:00 13,5 10,7 22 12 - - ENE 1035,5
13.09.2019 20:00:00 13,5 10,8 21 11 - - NE 1035,6
13.09.2019 19:00:00 14,5 11,2 21 11 - - NE 1035,3
13.09.2019 18:00:00 16,1 11,4 22 12 - - NE 1034,9
13.09.2019 17:00:00 17,3 12,1 21 11 - - NE 1034,9
13.09.2019 16:00:00 18,3 12,6 22 12 - - ENE 1034,6
13.09.2019 15:00:00 18,0 12,7 24 13 - - NE 1034,8
13.09.2019 14:00:00 17,9 12,8 24 13 - - NE 1034,7
13.09.2019 13:00:00 18,4 12,9 24 13 - - NE 1034,6
13.09.2019 12:00:00 17,7 13,3 21 11 - - NE 1034,4
13.09.2019 11:00:00 18,7 13,4 21 11 - - N 1034,2
13.09.2019 10:00:00 18,0 13,4 15 8 - - N 1033,8
13.09.2019 09:00:00 16,3 13,3 28 15 - - N 1032,6
13.09.2019 08:00:00 15,9 13,9 26 14 - - NNW 1031,9
13.09.2019 07:00:00 16,0 14,6 24 13 - - NNW 1031,3
13.09.2019 06:00:00 16,8 15,1 22 12 - - NW 1030,9
13.09.2019 05:00:00 16,6 14,9 16 9 - - WNW 1030,2
13.09.2019 04:00:00 16,6 14,8 15 8 - - W 1029,9
13.09.2019 03:00:00 16,4 14,8 13 7 - - W 1029,8
13.09.2019 02:00:00 16,4 14,7 18 10 - - W 1029,6
13.09.2019 01:00:00 16,3 14,6 21 11 - - WSW 1029,5
13.09.2019 00:00:00 16,5 14,1 21 11 - - WSW 1029,4
12.09.2019 23:00:00 16,8 15,0 24 13 - - WSW 1029,5
12.09.2019 22:00:00 16,9 15,0 26 14 48 26 WSW 1029,3
12.09.2019 21:00:00 16,9 15,1 28 15 48 26 WSW 1029,1
12.09.2019 20:00:00 17,0 15,3 31 17 54 29 WSW 1028,7
12.09.2019 19:00:00 17,1 16,2 39 21 54 29 WSW 1028,2
12.09.2019 18:00:00 17,7 15,9 31 17 48 26 WSW 1028,0
12.09.2019 17:00:00 17,8 15,9 22 12 46 25 SW 1028,0
12.09.2019 16:00:00 18,9 16,3 26 14 - - SW 1028,0
12.09.2019 15:00:00 18,4 16,6 24 13 - - WSW 1028,3
12.09.2019 14:00:00 18,2 16,7 18 10 - - WSW 1028,7
12.09.2019 13:00:00 18,5 16,7 18 10 - - WSW 1028,7
12.09.2019 12:00:00 18,7 15,8 21 11 - - WSW 1028,7
12.09.2019 11:00:00 18,2 14,4 16 9 - - WSW 1028,6
12.09.2019 10:00:00 17,5 13,8 21 11 - - WSW 1028,1
12.09.2019 09:00:00 15,9 13,0 18 10 - - W 1027,7
12.09.2019 08:00:00 14,6 13,1 15 8 - - W 1027,2
12.09.2019 07:00:00 13,5 12,7 18 10 - - W 1026,3
12.09.2019 06:00:00 13,6 12,6 16 9 - - W 1025,8
12.09.2019 05:00:00 14,2 13,0 16 9 - - W 1025,3
12.09.2019 04:00:00 14,7 13,8 16 9 - - W 1025,2
12.09.2019 03:00:00 14,7 14,0 13 7 - - W 1025,1
12.09.2019 02:00:00 15,1 14,2 15 8 - - W 1024,5
12.09.2019 01:00:00 15,7 15,2 15 8 - - W 1024,2
12.09.2019 00:00:00 15,5 15,3 15 8 - - W 1023,9
11.09.2019 23:00:00 16,2 15,9 16 9 - - W 1023,5
11.09.2019 22:00:00 16,5 16,1 15 8 - - W 1023,1
11.09.2019 21:00:00 16,9 16,5 22 12 - - WSW 1022,7
11.09.2019 20:00:00 17,1 16,5 26 14 - - WSW 1022,2

tt = Température de l'air
td = dewpoint
ff = Vitesse du vent
fx = gusts
dd = Direction du vent
ppp = reduced air pressure

stations d'obs. à proximité